createdAt,value
2017-12-15T11:29:23.536Z,14.52
2017-12-15T11:29:33.457Z,15.29
2017-12-15T11:35:39.858Z,29.13
2017-12-15T11:35:49.859Z,29.13
2017-12-15T11:36:26.199Z,29.90
2017-12-15T11:36:36.199Z,29.99
2017-12-15T11:36:46.178Z,29.70
2017-12-15T11:36:56.205Z,29.70
2017-12-15T11:37:06.200Z,29.70
2017-12-15T11:37:16.200Z,29.59
2017-12-15T11:37:26.198Z,29.80
2017-12-15T11:37:36.200Z,29.88
2017-12-15T11:37:46.226Z,29.97
2017-12-15T11:37:56.250Z,30.17
2017-12-15T11:38:06.263Z,30.17
2017-12-15T11:38:16.246Z,29.88
2017-12-15T11:38:26.240Z,30.07
2017-12-15T11:38:36.399Z,30.15
2017-12-15T13:57:53.404Z,34.59
2017-12-15T13:58:02.517Z,34.30
2017-12-15T13:58:40.242Z,33.91
2017-12-15T13:58:48.841Z,33.91
2017-12-15T14:00:16.326Z,33.26
2017-12-15T14:00:26.337Z,33.24
2017-12-15T14:01:13.370Z,33.07
2017-12-15T14:01:23.377Z,32.97
2017-12-15T14:01:59.749Z,32.59
2017-12-15T14:02:09.723Z,32.59
2017-12-15T14:02:45.583Z,33.07
2017-12-15T14:02:55.580Z,32.87
2017-12-15T14:03:31.982Z,32.59
2017-12-15T14:03:41.969Z,32.30
2017-12-15T14:04:18.345Z,33.37
2017-12-15T14:04:28.353Z,34.81
2017-12-15T14:05:04.733Z,33.56
2017-12-15T14:05:14.728Z,33.28
2017-12-15T14:05:49.582Z,33.28
2017-12-15T14:05:59.606Z,33.08
2017-12-15T14:06:34.931Z,32.89
2017-12-15T14:06:44.920Z,32.60
2017-12-15T14:07:20.313Z,32.79
2017-12-15T14:07:30.319Z,32.70
2017-12-15T14:08:05.675Z,33.18
2017-12-15T14:08:15.675Z,32.98
2017-12-15T14:08:51.093Z,33.20
2017-12-15T14:09:01.055Z,33.00
2017-12-15T14:09:35.891Z,32.33
2017-12-15T14:09:45.893Z,32.23
2017-12-15T14:10:22.259Z,32.62
2017-12-15T14:10:32.249Z,32.62
2017-12-15T15:18:00.859Z,45.76
2017-12-15T15:20:39.225Z,90.14
2017-12-15T15:20:41.983Z,87.70
2017-12-15T15:20:50.193Z,87.02
2017-12-15T15:21:00.157Z,84.69
2017-12-15T15:21:10.163Z,62.96
2017-12-15T15:21:20.163Z,51.40
2017-12-15T15:21:31.671Z,43.88
2017-12-15T15:21:41.622Z,40.87
2017-12-15T15:21:51.356Z,38.71
2017-12-15T15:22:01.803Z,37.43
2017-12-15T15:22:11.609Z,36.36
2017-12-15T15:22:22.121Z,38.79
2017-12-15T15:22:31.584Z,42.29
2017-12-15T15:22:41.500Z,38.19
2017-12-15T15:22:50.221Z,35.11
2017-12-15T15:23:01.532Z,33.25
2017-12-15T15:23:11.445Z,31.70
2017-12-15T15:23:21.384Z,31.79
2017-12-15T15:23:31.487Z,31.89
2017-12-15T15:23:41.612Z,31.50
2017-12-15T15:23:52.186Z,29.66
2017-12-15T15:24:01.549Z,29.47
2017-12-15T15:24:11.753Z,29.57
2017-12-15T15:24:22.493Z,29.66
2017-12-15T15:24:30.250Z,30.54
2017-12-15T15:24:42.327Z,30.73
2017-12-15T15:24:51.515Z,30.82
2017-12-15T15:25:01.930Z,32.49
2017-12-15T15:25:11.637Z,32.28
2017-12-15T15:25:21.825Z,33.17
2017-12-15T15:25:30.384Z,33.17
2017-12-15T15:25:41.533Z,31.71
2017-12-15T15:25:52.815Z,31.04
2017-12-15T15:26:01.259Z,30.84
2017-12-15T15:26:11.253Z,31.52
2017-12-15T15:26:21.762Z,30.94
2017-12-15T15:26:31.602Z,29.97
2017-12-15T15:26:41.262Z,29.48
2017-12-15T15:26:51.298Z,29.00
2017-12-15T15:27:01.712Z,28.90
2017-12-15T15:27:11.308Z,29.87
2017-12-15T15:27:21.321Z,29.38
2017-12-15T15:27:31.914Z,28.40
2017-12-15T15:27:41.557Z,28.89
2017-12-15T15:27:51.878Z,32.57
2017-12-15T15:28:01.657Z,37.41
2017-12-15T15:28:11.357Z,36.44
2017-12-15T15:28:21.453Z,33.34
2017-12-15T15:28:31.410Z,31.78
2017-12-15T15:28:41.634Z,31.01
2017-12-15T15:28:51.491Z,30.32
2017-12-15T15:29:02.246Z,35.75
2017-12-15T15:29:12.025Z,35.07
2017-12-15T15:29:22.035Z,34.09
2017-12-15T15:29:31.870Z,32.54
2017-12-15T15:29:41.481Z,31.57
2017-12-15T15:29:51.514Z,31.47
2017-12-15T15:30:01.553Z,31.37
2017-12-15T15:30:11.538Z,30.99
2017-12-15T15:30:21.602Z,30.69
2017-12-15T15:30:32.018Z,30.99
2017-12-15T15:30:42.045Z,30.31
2017-12-15T15:30:51.946Z,30.10
2017-12-15T15:31:01.846Z,30.10
2017-12-15T15:31:11.692Z,30.00
2017-12-15T15:31:21.629Z,29.91
2017-12-15T15:31:31.670Z,30.88
2017-12-15T15:31:41.770Z,30.88
2017-12-15T15:31:51.511Z,31.07
2017-12-15T15:32:01.978Z,30.88
2017-12-15T15:32:10.450Z,30.29
2017-12-15T15:32:21.542Z,29.91
